Time;durP1;ratioP1;P1;durP2;ratioP2;P2;SDS_P1;SDS_P2;PMS_P1;PMS_P2;Temp;Humidity;BMP_temperature;BMP_pressure;BME280_temperature;BME280_humidity;BME280_pressure;Samples;Min_cycle;Max_cycle;Signal;HPM_P1;HPM_P2
2023/09/16 00:01:13;;;;;;;5.13;2.57;;;;;;;14.36;100.00;101069.63;6024529;28;20078;-64
2023/09/16 00:04:09;;;;;;;5.47;2.27;;;;;;;14.45;100.00;101080.16;6025058;28;20432;-65
2023/09/16 00:07:05;;;;;;;4.45;2.28;;;;;;;14.46;100.00;101070.34;6024759;28;20501;-64
2023/09/16 00:10:00;;;;;;;4.73;2.50;;;;;;;14.54;100.00;101079.19;6025427;28;20053;-64
2023/09/16 00:12:55;;;;;;;5.57;2.90;;;;;;;14.46;100.00;101078.34;6025260;28;20022;-64
2023/09/16 00:15:51;;;;;;;5.97;2.97;;;;;;;14.38;100.00;101064.97;6024763;28;20633;-65
2023/09/16 00:18:46;;;;;;;4.43;2.43;;;;;;;14.45;100.00;101088.19;6024240;28;20057;-64
2023/09/16 00:21:42;;;;;;;6.53;2.83;;;;;;;14.37;100.00;101077.47;6032895;28;20737;-64
2023/09/16 00:24:37;;;;;;;5.25;3.10;;;;;;;14.34;100.00;101087.63;6020763;28;20276;-64
2023/09/16 00:27:32;;;;;;;7.47;2.83;;;;;;;14.04;100.00;101030.31;6018960;28;20030;-65
2023/09/16 00:30:28;;;;;;;5.37;3.03;;;;;;;14.28;100.00;101073.06;6025181;28;20034;-64
2023/09/16 00:33:23;;;;;;;4.25;2.85;;;;;;;14.40;100.00;101070.97;6024966;28;20032;-65
2023/09/16 00:36:19;;;;;;;5.07;2.60;;;;;;;14.37;100.00;101060.63;6024462;28;20042;-64
2023/09/16 00:39:14;;;;;;;6.57;2.83;;;;;;;14.41;100.00;101068.13;6024648;28;20042;-64
2023/09/16 00:42:10;;;;;;;8.37;3.13;;;;;;;14.42;100.00;101068.97;6024038;28;20049;-65
2023/09/16 00:45:07;;;;;;;4.68;2.85;;;;;;;14.38;100.00;101062.31;6018657;28;20352;-65
2023/09/16 00:48:02;;;;;;;6.03;2.78;;;;;;;14.34;100.00;101066.28;6024325;28;20033;-65
2023/09/16 00:50:57;;;;;;;5.25;3.17;;;;;;;14.25;100.00;101063.56;6025283;28;20382;-65
2023/09/16 00:53:53;;;;;;;5.27;2.90;;;;;;;14.17;100.00;101066.19;6028881;28;20022;-64
2023/09/16 00:56:49;;;;;;;6.65;3.38;;;;;;;13.85;100.00;101020.72;6027590;28;20258;-64
2023/09/16 00:59:44;;;;;;;6.47;3.28;;;;;;;14.06;100.00;101066.47;6028010;28;20363;-64
2023/09/16 01:02:39;;;;;;;5.95;3.05;;;;;;;13.81;100.00;101046.00;6029098;28;20084;-64
2023/09/16 01:05:35;;;;;;;5.60;2.87;;;;;;;13.45;100.00;101015.97;6028306;28;20041;-64
2023/09/16 01:08:33;;;;;;;6.15;3.08;;;;;;;13.53;100.00;101048.00;6028620;28;20045;-64
2023/09/16 01:11:28;;;;;;;5.78;3.30;;;;;;;13.49;100.00;101061.81;6028829;28;20038;-64
2023/09/16 01:14:24;;;;;;;7.80;2.80;;;;;;;13.38;100.00;101048.75;6028021;28;20045;-64
2023/09/16 01:17:25;;;;;;;7.20;3.55;;;;;;;13.45;100.00;101052.47;6028582;28;20413;-64
2023/09/16 01:20:21;;;;;;;6.10;3.20;;;;;;;13.34;100.00;101045.56;6027330;28;20109;-64
2023/09/16 01:23:19;;;;;;;7.38;3.15;;;;;;;13.27;100.00;101044.50;6026119;28;20030;-64
2023/09/16 01:26:15;;;;;;;7.15;3.55;;;;;;;13.06;100.00;101028.84;6026479;28;20038;-64
2023/09/16 01:29:11;;;;;;;8.65;4.10;;;;;;;13.05;100.00;101040.47;6028440;28;20373;-64
2023/09/16 01:32:07;;;;;;;7.15;3.67;;;;;;;12.99;100.00;101048.25;6028552;28;20026;-64
2023/09/16 01:35:06;;;;;;;6.50;3.80;;;;;;;12.98;100.00;101051.91;6026965;28;20034;-64
2023/09/16 01:38:04;;;;;;;6.95;3.88;;;;;;;13.05;100.00;101053.78;6026429;28;20118;-64
2023/09/16 01:40:59;;;;;;;7.28;3.25;;;;;;;12.94;100.00;101040.72;6024811;28;20280;-64
2023/09/16 01:43:55;;;;;;;5.95;3.45;;;;;;;12.98;100.00;101027.94;6026551;28;20034;-64
2023/09/16 01:46:55;;;;;;;9.25;3.88;;;;;;;12.94;100.00;101032.72;6027647;28;20030;-64
2023/09/16 01:49:50;;;;;;;7.63;3.90;;;;;;;12.92;100.00;101021.41;6023665;28;20034;-64
2023/09/16 01:52:45;;;;;;;6.93;3.67;;;;;;;12.81;100.00;101016.31;6028122;28;20042;-64
2023/09/16 01:55:41;;;;;;;7.10;4.07;;;;;;;12.98;100.00;101033.25;6027312;28;20034;-65
2023/09/16 01:58:36;;;;;;;7.10;4.00;;;;;;;12.97;100.00;101035.09;6027737;28;20075;-64
2023/09/16 02:01:31;;;;;;;6.93;3.57;;;;;;;13.00;100.00;101033.94;6027999;28;20097;-64
2023/09/16 02:04:27;;;;;;;8.93;4.20;;;;;;;12.90;100.00;101006.56;6026631;28;20042;-64
2023/09/16 02:07:34;;;;;;;8.82;3.80;;;;;;;13.07;100.00;101035.03;6027345;28;20029;-65
2023/09/16 02:10:30;;;;;;;8.27;3.63;;;;;;;13.02;100.00;101014.16;6024161;28;20046;-65
2023/09/16 02:13:25;;;;;;;8.93;3.87;;;;;;;12.98;100.00;101033.25;6027345;28;20125;-65
2023/09/16 02:16:20;;;;;;;6.55;3.95;;;;;;;12.95;100.00;101034.41;6026569;28;20744;-65
2023/09/16 02:19:16;;;;;;;6.27;3.63;;;;;;;12.97;100.00;101018.25;6027418;28;20034;-65
2023/09/16 02:22:11;;;;;;;6.93;3.33;;;;;;;12.93;100.00;101036.41;6021996;28;20842;-65
2023/09/16 02:25:06;;;;;;;7.40;3.87;;;;;;;12.82;100.00;101023.31;6024247;28;20038;-64
2023/09/16 02:28:02;;;;;;;6.95;3.33;;;;;;;12.85;100.00;101031.00;6026919;28;20041;-64
2023/09/16 02:30:57;;;;;;;7.85;3.72;;;;;;;12.84;100.00;101020.50;6026676;28;20505;-65
2023/09/16 02:33:57;;;;;;;6.75;3.72;;;;;;;12.83;100.00;101026.78;6026922;28;20026;-64
2023/09/16 02:36:52;;;;;;;8.60;3.95;;;;;;;12.72;100.00;101021.72;6024786;28;20030;-64
2023/09/16 02:39:47;;;;;;;7.23;3.83;;;;;;;12.80;100.00;101030.59;6026421;28;20093;-64
2023/09/16 02:42:43;;;;;;;7.43;3.80;;;;;;;12.77;100.00;101030.94;6026996;28;20037;-64
2023/09/16 02:45:41;;;;;;;6.53;4.10;;;;;;;12.69;100.00;101028.16;6025785;28;20049;-64
2023/09/16 02:48:37;;;;;;;9.75;4.40;;;;;;;12.80;100.00;101019.94;6027003;28;20129;-64
2023/09/16 02:51:32;;;;;;;7.13;4.10;;;;;;;12.76;100.00;101037.22;6026522;28;20144;-64
2023/09/16 02:54:27;;;;;;;9.13;4.43;;;;;;;12.66;100.00;101025.81;6024541;28;20041;-65
2023/09/16 02:57:23;;;;;;;10.37;4.70;;;;;;;12.74;100.00;101035.72;6026672;28;20065;-64
2023/09/16 03:00:18;;;;;;;8.90;4.50;;;;;;;12.66;100.00;101017.84;6026341;28;20393;-64
2023/09/16 03:03:14;;;;;;;7.70;4.10;;;;;;;12.65;100.00;101021.47;6026205;28;20117;-64
2023/09/16 03:06:09;;;;;;;7.10;4.00;;;;;;;12.72;100.00;101032.38;6025140;28;20036;-64
2023/09/16 03:09:04;;;;;;;8.97;4.27;;;;;;;12.57;100.00;101013.41;6025861;28;20034;-65
2023/09/16 03:12:00;;;;;;;6.47;3.63;;;;;;;12.68;100.00;101036.31;6026155;28;20029;-64
2023/09/16 03:14:55;;;;;;;11.23;4.33;;;;;;;12.54;100.00;101013.72;6024367;28;20049;-64
2023/09/16 03:17:50;;;;;;;8.85;4.72;;;;;;;12.59;100.00;101031.88;6025879;28;20265;-64
2023/09/16 03:20:46;;;;;;;10.20;4.57;;;;;;;12.57;100.00;101026.72;6021021;28;20037;-64
2023/09/16 03:23:41;;;;;;;10.53;4.40;;;;;;;12.53;100.00;101023.53;6025904;28;20109;-64
2023/09/16 03:26:37;;;;;;;7.97;4.45;;;;;;;12.51;100.00;101016.69;6024118;28;20109;-64
2023/09/16 03:29:32;;;;;;;9.77;5.18;;;;;;;12.53;100.00;101028.00;6018788;28;20039;-64
2023/09/16 03:32:28;;;;;;;8.37;4.87;;;;;;;12.52;100.00;101031.66;6025962;28;20038;-64
2023/09/16 03:35:26;;;;;;;8.02;4.43;;;;;;;12.54;100.00;101019.03;6024012;28;20489;-64
2023/09/16 03:38:23;;;;;;;9.05;4.63;;;;;;;12.45;100.00;101010.13;6020017;28;20042;-64
2023/09/16 03:41:19;;;;;;;9.52;5.10;;;;;;;12.52;100.00;101032.50;6021562;28;20038;-64
2023/09/16 03:44:15;;;;;;;10.07;4.97;;;;;;;12.44;100.00;101008.50;6025156;28;20042;-64
2023/09/16 03:47:10;;;;;;;8.68;4.63;;;;;;;12.47;100.00;101018.78;6021107;28;20046;-64
2023/09/16 03:50:06;;;;;;;9.77;5.40;;;;;;;12.41;100.00;101023.91;6019502;28;20037;-64
2023/09/16 03:53:01;;;;;;;9.45;5.18;;;;;;;12.38;100.00;101017.06;6021410;28;20022;-64
2023/09/16 03:55:56;;;;;;;9.77;5.03;;;;;;;12.45;100.00;101014.63;6024780;28;20058;-64
2023/09/16 03:58:52;;;;;;;9.60;5.13;;;;;;;12.41;100.00;101013.25;6025377;28;20713;-65
2023/09/16 04:01:47;;;;;;;13.95;6.05;;;;;;;12.38;100.00;101000.25;6025631;28;20034;-64
2023/09/16 04:04:43;;;;;;;9.48;5.20;;;;;;;12.35;100.00;100997.91;6018547;28;20113;-64
2023/09/16 04:07:38;;;;;;;11.03;5.57;;;;;;;12.43;100.00;101006.81;6017544;28;20042;-65
2023/09/16 04:10:34;;;;;;;10.68;5.90;;;;;;;12.45;100.00;101011.97;6025335;28;20038;-64
2023/09/16 04:13:29;;;;;;;10.10;5.70;;;;;;;12.36;100.00;101004.91;6025536;28;20482;-64
2023/09/16 04:16:25;;;;;;;11.83;5.63;;;;;;;12.32;100.00;101009.66;6024825;28;20514;-64
2023/09/16 04:19:20;;;;;;;11.63;5.85;;;;;;;12.25;100.00;100990.00;6025124;28;20081;-64
2023/09/16 04:22:16;;;;;;;13.18;6.00;;;;;;;12.23;100.00;100993.78;6027083;28;20030;-64
2023/09/16 04:25:11;;;;;;;14.20;6.53;;;;;;;12.20;100.00;100986.13;6024627;28;20385;-64
2023/09/16 04:28:06;;;;;;;14.73;6.33;;;;;;;12.29;100.00;101003.81;6028760;28;20445;-64
2023/09/16 04:31:04;;;;;;;10.83;5.80;;;;;;;12.22;100.00;100998.28;6029356;28;20041;-64
2023/09/16 04:33:59;;;;;;;10.55;6.45;;;;;;;12.14;100.00;100994.69;6029301;28;20113;-64
2023/09/16 04:36:54;;;;;;;12.63;6.80;;;;;;;12.16;100.00;100988.22;6029284;28;20493;-64
2023/09/16 04:39:50;;;;;;;11.48;5.95;;;;;;;12.13;100.00;100993.00;6029078;28;20046;-64
2023/09/16 04:42:45;;;;;;;11.67;5.93;;;;;;;12.18;100.00;100996.03;6029713;28;20030;-64
2023/09/16 04:45:44;;;;;;;12.33;6.63;;;;;;;12.15;100.00;101001.69;6028926;28;20029;-64
2023/09/16 04:48:39;;;;;;;12.15;6.10;;;;;;;12.02;100.00;100985.22;6028330;28;20034;-64
2023/09/16 04:51:34;;;;;;;12.63;6.77;;;;;;;12.02;100.00;100985.22;6032071;28;20060;-64
2023/09/16 04:54:32;;;;;;;12.70;6.77;;;;;;;12.03;100.00;101001.03;6029208;28;20045;-64
2023/09/16 04:57:27;;;;;;;11.18;5.93;;;;;;;12.01;100.00;100988.88;6029169;28;20096;-64
2023/09/16 05:00:22;;;;;;;16.10;6.93;;;;;;;12.02;100.00;100995.84;6029160;28;20074;-64
2023/09/16 05:03:20;;;;;;;14.93;6.97;;;;;;;12.03;100.00;101006.34;6028830;28;20034;-64
2023/09/16 05:06:16;;;;;;;11.02;6.32;;;;;;;12.01;100.00;101000.38;6025760;28;20366;-64
2023/09/16 05:09:11;;;;;;;12.97;7.27;;;;;;;11.93;100.00;100992.25;6028538;28;20038;-64
2023/09/16 05:12:06;;;;;;;12.47;7.00;;;;;;;11.97;100.00;101003.44;6029054;28;20030;-64
2023/09/16 05:15:02;;;;;;;14.17;7.73;;;;;;;11.96;100.00;101001.78;6026714;28;20038;-64
2023/09/16 05:17:57;;;;;;;13.02;7.53;;;;;;;11.97;100.00;101000.78;6028592;28;20261;-64
2023/09/16 05:20:52;;;;;;;11.87;6.90;;;;;;;11.93;100.00;100990.44;6030714;28;20069;-64
2023/09/16 05:23:51;;;;;;;13.43;7.50;;;;;;;12.07;100.00;101009.53;6028235;28;20485;-65
2023/09/16 05:26:47;;;;;;;14.00;7.03;;;;;;;12.05;100.00;101006.19;6028321;28;20977;-64
2023/09/16 05:29:42;;;;;;;15.00;7.13;;;;;;;12.00;100.00;100976.56;6027830;28;20035;-64
2023/09/16 05:32:37;;;;;;;12.00;7.07;;;;;;;12.31;100.00;100996.53;6032189;28;20053;-64
2023/09/16 05:35:33;;;;;;;11.50;6.80;;;;;;;12.67;100.00;101008.00;6023496;28;20034;-64
2023/09/16 05:38:28;;;;;;;10.80;6.50;;;;;;;12.92;100.00;101002.78;6026624;28;20301;-64
2023/09/16 05:41:24;;;;;;;13.20;6.40;;;;;;;13.27;100.00;101001.88;6028449;28;20034;-64
2023/09/16 05:44:21;;;;;;;12.50;6.80;;;;;;;13.23;100.00;100994.38;6027158;28;20026;-65
2023/09/16 05:47:17;;;;;;;12.93;6.07;;;;;;;13.19;100.00;100983.19;6028290;28;20038;-64
2023/09/16 05:50:13;;;;;;;12.43;6.90;;;;;;;13.48;100.00;100993.53;6027734;28;20045;-64
2023/09/16 05:53:08;;;;;;;11.88;5.78;;;;;;;13.73;100.00;100998.00;6025978;28;20034;-65
2023/09/16 05:56:08;;;;;;;10.90;5.77;;;;;;;14.06;100.00;100999.81;6026994;28;20065;-66
2023/09/16 05:59:04;;;;;;;10.85;6.25;;;;;;;13.91;100.00;100957.94;6027047;28;20478;-66
2023/09/16 06:02:00;;;;;;;10.85;5.88;;;;;;;13.88;100.00;100985.75;6027886;28;20489;-66
2023/09/16 06:04:55;;;;;;;10.38;5.70;;;;;;;14.52;100.00;100997.59;6019724;28;20045;-66
2023/09/16 06:07:50;;;;;;;10.23;5.70;;;;;;;14.47;100.00;101006.13;6026938;28;20034;-66
2023/09/16 06:10:45;;;;;;;14.47;6.13;;;;;;;14.32;100.00;100989.91;6027740;28;20042;-67
2023/09/16 06:13:41;;;;;;;12.57;6.77;;;;;;;14.24;100.00;101007.72;6026900;28;20038;-66
2023/09/16 06:16:36;;;;;;;10.83;6.10;;;;;;;14.27;100.00;100968.19;6027197;28;20066;-66
2023/09/16 06:19:32;;;;;;;12.70;6.20;;;;;;;14.40;100.00;100998.94;6019144;28;20339;-64
2023/09/16 06:22:27;;;;;;;13.73;6.30;;;;;;;14.43;100.00;101001.28;6028519;28;20094;-64
2023/09/16 06:25:22;;;;;;;9.57;5.97;;;;;;;14.52;100.00;100989.59;6022874;28;20042;-64
2023/09/16 06:28:18;;;;;;;10.27;5.97;;;;;;;14.76;100.00;100981.63;6026785;28;20313;-64
2023/09/16 06:31:13;;;;;;;11.00;6.10;;;;;;;14.74;100.00;100999.66;6026421;28;20711;-64
2023/09/16 06:34:08;;;;;;;10.77;6.30;;;;;;;14.54;100.00;101001.78;6025705;28;20065;-64
2023/09/16 06:37:05;;;;;;;11.80;6.33;;;;;;;14.88;100.00;100981.13;6025403;28;20034;-64
2023/09/16 06:40:00;;;;;;;11.30;6.15;;;;;;;14.96;100.00;100977.63;6026147;28;20057;-63
2023/09/16 06:42:55;;;;;;;11.80;6.97;;;;;;;14.92;100.00;100984.28;6026188;28;20624;-66
2023/09/16 06:45:51;;;;;;;10.97;5.70;;;;;;;15.07;100.00;100995.97;6023058;28;20130;-66
2023/09/16 06:48:48;;;;;;;13.48;6.07;;;;;;;15.12;100.00;100998.13;6018065;28;20073;-66
2023/09/16 06:51:43;;;;;;;9.95;6.00;;;;;;;15.11;100.00;100991.94;6024430;28;20038;-66
2023/09/16 06:54:38;;;;;;;8.68;5.63;;;;;;;15.21;100.00;100995.31;6020201;28;20398;-66
2023/09/16 06:57:34;;;;;;;10.30;6.13;;;;;;;15.39;100.00;100987.06;6018609;28;20138;-66
2023/09/16 07:00:30;;;;;;;12.77;5.87;;;;;;;15.33;100.00;100996.59;6018404;28;20045;-66
2023/09/16 07:03:25;;;;;;;10.57;6.00;;;;;;;15.51;100.00;100995.59;6018427;28;20109;-66
2023/09/16 07:06:20;;;;;;;11.07;6.60;;;;;;;15.56;100.00;101006.63;6025116;28;20065;-65
2023/09/16 07:09:16;;;;;;;9.37;5.63;;;;;;;15.82;100.00;100991.16;5990390;28;20057;-67
2023/09/16 07:12:11;;;;;;;9.73;6.20;;;;;;;15.86;100.00;100981.78;6021348;28;20034;-64
2023/09/16 07:15:07;;;;;;;8.63;5.47;;;;;;;16.01;100.00;101001.44;6014770;28;20516;-64
2023/09/16 07:18:02;;;;;;;10.00;5.88;;;;;;;16.07;100.00;101004.25;6011888;28;20038;-64
2023/09/16 07:20:57;;;;;;;8.95;5.50;;;;;;;16.17;100.00;100982.63;6019316;28;20027;-65
2023/09/16 07:23:53;;;;;;;8.07;4.40;;;;;;;16.48;100.00;100978.09;6021609;28;20042;-65
2023/09/16 07:26:49;;;;;;;12.77;5.97;;;;;;;16.62;100.00;100981.88;6022655;28;20038;-64
2023/09/16 07:29:44;;;;;;;9.85;5.35;;;;;;;16.81;100.00;100999.31;6017173;28;20038;-65
2023/09/16 07:32:42;;;;;;;11.63;6.10;;;;;;;16.82;97.84;100974.22;6024174;28;20037;-65
2023/09/16 07:35:37;;;;;;;10.23;5.28;;;;;;;16.99;98.19;100981.91;6023589;28;20037;-65
2023/09/16 07:38:32;;;;;;;10.37;5.70;;;;;;;17.07;96.42;100984.50;6021886;28;20070;-65
2023/09/16 07:41:27;;;;;;;7.77;4.53;;;;;;;17.29;94.32;100990.84;6025372;28;20280;-65
2023/09/16 07:44:23;;;;;;;10.63;4.93;;;;;;;17.46;93.39;100995.03;6023185;28;20030;-65
2023/09/16 07:47:18;;;;;;;12.60;4.53;;;;;;;17.51;93.44;100997.16;6013606;28;20435;-65
2023/09/16 07:50:13;;;;;;;8.93;4.78;;;;;;;17.62;93.06;100972.59;6017909;28;20478;-65
2023/09/16 07:53:09;;;;;;;10.30;5.33;;;;;;;17.81;92.69;100988.13;6021588;28;20046;-64
2023/09/16 07:56:04;;;;;;;8.60;4.80;;;;;;;17.92;91.79;100995.72;6016332;28;20366;-65
2023/09/16 07:58:59;;;;;;;7.57;4.50;;;;;;;18.38;88.54;100996.25;6016826;28;20042;-65
2023/09/16 08:01:55;;;;;;;8.23;4.50;;;;;;;18.41;86.82;100977.09;6019749;28;20284;-65
2023/09/16 08:04:50;;;;;;;7.73;4.83;;;;;;;18.57;86.31;100990.31;6027651;28;20278;-65
2023/09/16 08:07:46;;;;;;;8.30;4.40;;;;;;;18.65;86.16;100992.88;6030046;28;20273;-66
2023/09/16 08:10:50;;;;;;;8.20;4.50;;;;;;;18.74;86.34;100994.41;6014211;28;20276;-65
2023/09/16 08:13:45;;;;;;;8.38;4.68;;;;;;;19.05;84.77;101004.00;6021845;28;20537;-65
2023/09/16 08:16:40;;;;;;;6.00;3.77;;;;;;;18.87;84.34;100994.53;6024191;28;20042;-65
2023/09/16 08:19:36;;;;;;;9.48;4.63;;;;;;;18.86;83.11;100989.38;6025059;28;20049;-65
2023/09/16 08:22:31;;;;;;;7.33;4.13;;;;;;;19.19;81.88;100995.00;6023444;28;20050;-66
2023/09/16 08:25:26;;;;;;;7.20;4.07;;;;;;;19.44;81.35;101004.31;6017300;28;20340;-65
2023/09/16 08:28:22;;;;;;;8.73;4.75;;;;;;;19.62;80.46;100993.91;6021824;28;20027;-65
2023/09/16 08:31:17;;;;;;;7.60;3.75;;;;;;;20.10;79.05;100998.28;6019757;28;20034;-65
2023/09/16 08:34:12;;;;;;;6.63;4.00;;;;;;;19.98;78.50;100996.34;6025207;28;20070;-65
2023/09/16 08:37:08;;;;;;;9.40;4.37;;;;;;;20.15;77.38;100993.13;6029390;28;20026;-66
2023/09/16 08:40:03;;;;;;;9.10;4.13;;;;;;;20.57;76.54;100993.91;6026048;28;20034;-65
2023/09/16 08:43:13;;;;;;;7.35;3.50;;;;;;;20.31;77.13;100997.34;6016195;28;20035;-65
2023/09/16 08:46:10;;;;;;;7.20;3.80;;;;;;;20.81;74.96;100987.94;6031758;28;20049;-65
2023/09/16 08:49:07;;;;;;;7.03;3.72;;;;;;;20.89;73.45;100978.81;6027127;28;20040;-66
2023/09/16 08:52:04;;;;;;;7.28;4.13;;;;;;;21.15;73.98;100984.22;6028407;28;20102;-65
2023/09/16 08:54:59;;;;;;;8.07;3.85;;;;;;;21.59;72.23;100988.94;6026578;28;20041;-65
2023/09/16 08:58:04;;;;;;;7.25;3.53;;;;;;;21.37;72.72;100972.16;6021978;28;20482;-65
2023/09/16 09:00:59;;;;;;;7.03;3.55;;;;;;;21.34;71.80;100983.38;6019477;28;20036;-65
2023/09/16 09:03:55;;;;;;;7.93;3.72;;;;;;;21.57;71.53;100972.13;6020567;28;20035;-66
2023/09/16 09:06:51;;;;;;;5.03;3.28;;;;;;;22.15;69.48;100976.53;6015506;28;20031;-65
2023/09/16 09:09:46;;;;;;;5.80;3.53;;;;;;;21.98;68.42;100974.53;6019136;28;20124;-66
2023/09/16 09:12:43;;;;;;;7.70;3.30;;;;;;;22.16;67.78;100978.19;6017382;28;20121;-65
2023/09/16 09:15:40;;;;;;;4.97;2.78;;;;;;;21.93;68.62;100957.09;6016286;28;20062;-65
2023/09/16 09:18:37;;;;;;;5.18;3.13;;;;;;;22.15;68.69;100968.41;6015028;28;20046;-65
2023/09/16 09:21:33;;;;;;;6.57;3.22;;;;;;;21.96;68.61;100963.94;6023893;28;20096;-66
2023/09/16 09:24:28;;;;;;;4.97;3.10;;;;;;;22.16;68.91;100959.28;6023426;28;20026;-65
2023/09/16 09:27:23;;;;;;;6.97;3.00;;;;;;;22.25;67.20;100949.88;6020573;28;20034;-65
2023/09/16 09:30:24;;;;;;;5.60;3.07;;;;;;;22.47;65.70;100972.84;6019764;28;20288;-65
2023/09/16 09:33:20;;;;;;;5.45;3.00;;;;;;;22.46;66.32;100957.66;6022715;28;20447;-65
2023/09/16 09:36:17;;;;;;;5.28;2.95;;;;;;;22.71;66.64;100971.25;6026658;28;20056;-66
2023/09/16 09:39:12;;;;;;;5.97;3.40;;;;;;;22.83;66.20;100966.78;6028155;28;20049;-66
2023/09/16 09:42:08;;;;;;;5.03;2.90;;;;;;;23.33;62.97;100964.88;6026672;28;20039;-66
2023/09/16 09:45:03;;;;;;;7.47;3.33;;;;;;;23.25;61.24;100962.47;6026131;28;20037;-65
2023/09/16 09:47:58;;;;;;;5.65;2.80;;;;;;;23.13;61.64;100950.69;6027274;28;20033;-66
2023/09/16 09:50:54;;;;;;;3.70;2.43;;;;;;;23.18;60.75;100959.00;6027746;28;20034;-65
2023/09/16 09:53:49;;;;;;;4.43;2.67;;;;;;;23.34;61.27;100955.72;6028573;28;20181;-65
2023/09/16 09:56:45;;;;;;;5.47;2.50;;;;;;;23.46;58.40;100964.78;6025497;28;20038;-66
2023/09/16 09:59:41;;;;;;;5.90;2.38;;;;;;;24.03;57.67;100957.25;6027144;28;20764;-66
2023/09/16 10:02:39;;;;;;;4.47;2.70;;;;;;;23.68;56.39;100949.75;6027410;28;20040;-65
2023/09/16 10:05:35;;;;;;;5.68;2.33;;;;;;;23.50;56.63;100938.94;6026830;28;20030;-66
2023/09/16 10:08:31;;;;;;;5.85;3.00;;;;;;;23.65;59.27;100939.38;6027148;28;20434;-66
2023/09/16 10:11:32;;;;;;;4.95;2.38;;;;;;;23.53;57.89;100933.06;6026840;28;20030;-65
2023/09/16 10:14:27;;;;;;;4.82;2.08;;;;;;;23.23;56.16;100942.94;6026929;28;20489;-65
2023/09/16 10:17:23;;;;;;;4.55;2.42;;;;;;;23.53;56.27;100921.41;6024934;28;20030;-66
2023/09/16 10:20:18;;;;;;;5.57;2.28;;;;;;;23.84;54.96;100929.34;6025328;28;20074;-66
2023/09/16 10:23:13;;;;;;;5.18;2.80;;;;;;;23.64;54.78;100942.31;6014079;28;20494;-65
2023/09/16 10:26:10;;;;;;;4.30;2.25;;;;;;;24.15;55.14;100937.31;6014307;28;20130;-66
2023/09/16 10:29:06;;;;;;;4.72;2.40;;;;;;;24.29;54.73;100937.97;6019935;28;20049;-66
2023/09/16 10:32:02;;;;;;;4.82;2.10;;;;;;;24.26;53.85;100941.13;6023209;28;20058;-66
2023/09/16 10:35:02;;;;;;;4.40;2.38;;;;;;;24.08;53.20;100941.16;6011597;28;20032;-65
2023/09/16 10:38:00;;;;;;;4.28;2.55;;;;;;;23.96;53.80;100927.53;6014023;28;20401;-66
2023/09/16 10:40:55;;;;;;;6.15;2.45;;;;;;;24.26;52.41;100927.56;6013912;28;20077;-66
2023/09/16 10:43:52;;;;;;;4.87;2.40;;;;;;;24.33;52.43;100939.13;6018695;28;20114;-66
2023/09/16 10:46:50;;;;;;;4.38;2.20;;;;;;;24.48;52.23;100942.28;6023090;28;20273;-66
2023/09/16 10:49:46;;;;;;;5.50;2.33;;;;;;;24.46;53.25;100941.66;6010852;28;20034;-66
2023/09/16 10:52:51;;;;;;;5.80;2.15;;;;;;;24.49;52.09;100921.38;6012934;28;20022;-66
2023/09/16 10:55:47;;;;;;;6.70;2.50;;;;;;;24.50;51.50;100929.31;6017281;28;20062;-65
2023/09/16 10:59:09;;;;;;;5.55;2.50;;;;;;;24.79;51.76;100928.44;6015527;28;20038;-66
2023/09/16 11:02:15;;;;;;;5.50;2.45;;;;;;;24.33;52.48;100920.16;6020007;28;20121;-66
2023/09/16 11:05:10;;;;;;;6.32;2.78;;;;;;;24.37;52.14;100913.22;6009916;28;20043;-66
2023/09/16 11:08:06;;;;;;;5.40;2.23;;;;;;;25.30;51.46;100910.66;6023719;28;20041;-66
2023/09/16 11:11:01;;;;;;;4.57;2.53;;;;;;;25.26;50.80;100912.19;6014143;28;20035;-66
2023/09/16 11:13:57;;;;;;;6.77;2.80;;;;;;;25.27;51.86;100920.09;6022899;28;20370;-66
2023/09/16 11:16:53;;;;;;;5.65;2.55;;;;;;;25.27;50.83;100908.41;6016410;28;20308;-66
2023/09/16 11:19:49;;;;;;;5.32;2.50;;;;;;;25.28;50.85;100913.59;6021834;28;20063;-65
2023/09/16 11:22:47;;;;;;;7.50;2.80;;;;;;;25.24;51.33;100903.44;6016877;28;20482;-66
2023/09/16 11:25:42;;;;;;;4.00;2.53;;;;;;;25.25;50.85;100907.78;6025002;28;20312;-66
2023/09/16 11:28:41;;;;;;;4.72;2.22;;;;;;;25.06;51.41;100881.88;6024683;28;20027;-66
2023/09/16 11:31:36;;;;;;;6.22;2.45;;;;;;;25.28;51.38;100880.16;6017700;28;20030;-66
2023/09/16 11:34:32;;;;;;;5.90;2.73;;;;;;;25.51;50.99;100882.91;6023920;28;20060;-65
2023/09/16 11:37:30;;;;;;;4.32;2.45;;;;;;;25.40;51.02;100881.81;6020268;28;20504;-66
2023/09/16 11:40:27;;;;;;;4.28;2.67;;;;;;;25.22;52.01;100883.88;6025705;28;20023;-66
2023/09/16 11:43:22;;;;;;;3.10;2.13;;;;;;;25.40;48.68;100891.84;6025606;28;20092;-66
2023/09/16 11:46:17;;;;;;;4.63;2.17;;;;;;;25.40;48.26;100887.25;6016893;28;20035;-66
2023/09/16 11:49:15;;;;;;;4.13;2.45;;;;;;;25.41;48.48;100882.66;6023795;28;20038;-66
2023/09/16 11:52:10;;;;;;;5.43;3.03;;;;;;;25.22;48.98;100873.00;6025814;28;20053;-66
2023/09/16 11:55:07;;;;;;;3.30;2.00;;;;;;;25.25;46.49;100869.78;6024228;28;20438;-66
2023/09/16 11:58:02;;;;;;;3.90;1.98;;;;;;;25.18;46.72;100872.63;6023859;28;20030;-66
2023/09/16 12:00:58;;;;;;;6.28;2.00;;;;;;;25.05;46.87;100872.91;6025507;28;20449;-65
2023/09/16 12:03:55;;;;;;;3.10;1.93;;;;;;;25.59;47.19;100877.09;6023893;28;20084;-67
2023/09/16 12:06:50;;;;;;;3.08;1.85;;;;;;;25.45;47.69;100881.09;6024124;28;20053;-66
2023/09/16 12:09:47;;;;;;;3.65;2.25;;;;;;;25.55;47.31;100875.91;6015767;28;20492;-65
2023/09/16 12:12:43;;;;;;;5.05;3.47;;;;;;;25.73;47.26;100880.34;6024801;28;20133;-66
2023/09/16 12:15:39;;;;;;;5.35;2.70;;;;;;;25.49;47.12;100866.03;6022873;28;20504;-66
2023/09/16 12:18:34;;;;;;;3.72;2.00;;;;;;;25.61;47.18;100872.22;6025146;28;20023;-66
2023/09/16 12:21:29;;;;;;;3.73;2.60;;;;;;;25.26;47.16;100871.44;6026401;28;20096;-66
2023/09/16 12:24:25;;;;;;;5.60;2.47;;;;;;;25.34;46.97;100865.66;6022701;28;20277;-67
2023/09/16 12:27:21;;;;;;;3.10;2.10;;;;;;;25.50;47.18;100854.06;6024327;28;20034;-66
2023/09/16 12:30:16;;;;;;;5.05;2.28;;;;;;;25.50;47.42;100875.81;6023588;28;20309;-66
2023/09/16 12:33:11;;;;;;;5.00;2.40;;;;;;;25.65;47.14;100870.69;6025003;28;20496;-66
2023/09/16 12:36:15;;;;;;;3.30;2.00;;;;;;;25.75;46.73;100864.63;6024184;28;20039;-66
2023/09/16 12:39:12;;;;;;;3.58;2.03;;;;;;;25.87;46.32;100866.22;6018745;28;20038;-66
2023/09/16 12:42:07;;;;;;;12.07;6.13;;;;;;;26.08;46.70;100844.88;6024933;28;20404;-66
2023/09/16 12:45:03;;;;;;;4.13;2.35;;;;;;;26.11;46.88;100844.38;6024224;28;20081;-66
2023/09/16 12:47:59;;;;;;;5.80;2.50;;;;;;;25.92;47.04;100847.31;6025991;28;20022;-66
2023/09/16 12:50:55;;;;;;;3.80;2.35;;;;;;;26.11;46.23;100855.25;6027940;28;20057;-66
2023/09/16 12:53:51;;;;;;;5.30;2.67;;;;;;;25.67;47.54;100833.22;6028946;28;20046;-66
2023/09/16 12:56:48;;;;;;;5.28;2.42;;;;;;;25.88;46.47;100840.69;6028181;28;20038;-66
2023/09/16 12:59:58;;;;;;;6.40;2.72;;;;;;;25.90;47.21;100838.56;6028522;28;20117;-65
2023/09/16 13:02:53;;;;;;;4.00;2.15;;;;;;;26.08;46.19;100834.81;6027917;28;20030;-66
2023/09/16 13:05:50;;;;;;;4.00;2.50;;;;;;;26.21;45.64;100831.81;6028281;28;20393;-66
2023/09/16 13:08:46;;;;;;;5.35;2.60;;;;;;;26.44;45.60;100823.50;6028845;28;20105;-66
2023/09/16 13:11:41;;;;;;;6.57;3.33;;;;;;;26.14;46.68;100827.59;6027342;28;20401;-67
2023/09/16 13:14:38;;;;;;;4.87;2.30;;;;;;;26.26;46.54;100814.75;6026593;28;20617;-66
2023/09/16 13:17:33;;;;;;;3.88;2.42;;;;;;;26.38;45.08;100807.34;6023023;28;20100;-66
2023/09/16 13:20:36;;;;;;;4.27;2.33;;;;;;;26.43;44.32;100804.72;6032709;28;20054;-66
2023/09/16 13:23:33;;;;;;;4.88;2.20;;;;;;;26.51;44.30;100809.72;6028392;28;20034;-66
2023/09/16 13:26:31;;;;;;;3.88;2.38;;;;;;;26.18;44.70;100807.00;6027528;28;20038;-66
2023/09/16 13:29:31;;;;;;;4.13;2.10;;;;;;;26.53;43.66;100807.56;6027818;28;20385;-67
2023/09/16 13:32:26;;;;;;;5.45;2.63;;;;;;;26.63;43.56;100804.22;6028749;28;20362;-66